createdAt,value
2024-02-29T00:00:12.787Z,4.35
2024-02-29T00:02:39.973Z,4.31
2024-02-29T00:05:07.763Z,4.30
2024-02-29T00:07:34.223Z,4.30
2024-02-29T00:10:01.280Z,4.33
2024-02-29T00:12:27.912Z,4.34
2024-02-29T00:14:54.283Z,4.25
2024-02-29T00:17:21.157Z,4.37
2024-02-29T00:19:47.461Z,4.36
2024-02-29T00:22:13.959Z,4.39
2024-02-29T00:24:40.757Z,4.36
2024-02-29T00:27:08.518Z,4.35
2024-02-29T00:29:35.629Z,4.34
2024-02-29T00:32:02.212Z,4.31
2024-02-29T00:34:29.569Z,4.24
2024-02-29T00:36:56.680Z,4.09
2024-02-29T00:39:23.313Z,4.13
2024-02-29T00:41:49.708Z,4.13
2024-02-29T00:44:16.433Z,4.19
2024-02-29T00:46:42.975Z,4.19
2024-02-29T00:49:09.557Z,4.20
2024-02-29T00:51:36.068Z,4.14
2024-02-29T00:54:02.452Z,4.03
2024-02-29T00:56:29.053Z,4.02
2024-02-29T00:58:55.404Z,4.03
2024-02-29T01:01:22.120Z,3.90
2024-02-29T01:03:48.832Z,3.87
2024-02-29T01:06:17.453Z,3.90
2024-02-29T01:08:43.925Z,3.76
2024-02-29T01:11:10.557Z,3.84
2024-02-29T01:13:36.990Z,3.80
2024-02-29T01:16:03.608Z,3.79
2024-02-29T01:18:30.015Z,3.68
2024-02-29T01:20:56.503Z,3.75
2024-02-29T01:23:22.831Z,3.67
2024-02-29T01:25:49.403Z,3.54
2024-02-29T01:28:16.068Z,3.52
2024-02-29T01:30:42.499Z,3.56
2024-02-29T01:33:08.909Z,3.53
2024-02-29T01:35:35.350Z,3.42
2024-02-29T01:38:01.742Z,3.38
2024-02-29T01:40:28.418Z,3.38
2024-02-29T01:42:54.812Z,3.28
2024-02-29T01:45:21.547Z,3.32
2024-02-29T01:47:47.924Z,3.26
2024-02-29T01:50:16.605Z,3.27
2024-02-29T01:52:45.483Z,3.29
2024-02-29T01:55:13.816Z,3.26
2024-02-29T01:57:41.131Z,3.26
2024-02-29T02:00:09.766Z,3.27
2024-02-29T02:02:38.910Z,3.17
2024-02-29T02:05:07.207Z,3.15
2024-02-29T02:07:36.733Z,3.24
2024-02-29T02:10:04.645Z,3.12
2024-02-29T02:12:31.409Z,3.13
2024-02-29T02:14:57.879Z,3.19
2024-02-29T02:17:24.327Z,3.17
2024-02-29T02:19:52.782Z,3.13
2024-02-29T02:22:19.407Z,3.05
2024-02-29T02:24:45.818Z,3.02
2024-02-29T02:27:12.372Z,3.03
2024-02-29T02:29:38.832Z,2.97
2024-02-29T02:32:06.564Z,2.90
2024-02-29T02:34:32.898Z,2.91
2024-02-29T02:36:59.371Z,2.82
2024-02-29T02:39:26.102Z,2.77
2024-02-29T02:41:52.506Z,2.65
2024-02-29T02:44:18.858Z,2.73
2024-02-29T02:46:45.432Z,2.62
2024-02-29T02:49:11.837Z,2.60
2024-02-29T02:51:38.608Z,2.65
2024-02-29T02:54:05.062Z,2.68
2024-02-29T02:56:31.447Z,2.69
2024-02-29T02:58:57.821Z,2.68
2024-02-29T03:01:24.322Z,2.68
2024-02-29T03:03:53.396Z,2.73
2024-02-29T03:06:19.991Z,2.70
2024-02-29T03:08:46.486Z,2.72
2024-02-29T03:11:12.998Z,2.63
2024-02-29T03:13:39.963Z,2.63
2024-02-29T03:16:06.381Z,2.65
2024-02-29T03:18:32.834Z,2.57
2024-02-29T03:20:59.423Z,2.55
2024-02-29T03:23:25.984Z,2.56
2024-02-29T03:25:52.357Z,2.38
2024-02-29T03:28:18.710Z,2.45
2024-02-29T03:30:45.235Z,2.46
2024-02-29T03:33:11.728Z,2.53
2024-02-29T03:35:38.190Z,2.46
2024-02-29T03:38:04.822Z,2.54
2024-02-29T03:40:31.320Z,2.54
2024-02-29T03:42:57.952Z,2.56
2024-02-29T03:45:24.585Z,2.47
2024-02-29T03:47:51.132Z,2.54
2024-02-29T03:50:17.654Z,2.46
2024-02-29T03:52:44.213Z,2.43
2024-02-29T03:55:11.193Z,2.36
2024-02-29T03:57:37.872Z,2.38
2024-02-29T04:00:04.982Z,2.45
2024-02-29T04:02:31.314Z,2.43
2024-02-29T04:04:57.744Z,2.34
2024-02-29T04:07:24.401Z,2.38
2024-02-29T04:09:55.523Z,2.34
2024-02-29T04:12:22.004Z,2.34
2024-02-29T04:14:48.627Z,2.32
2024-02-29T04:17:15.133Z,2.30
2024-02-29T04:19:42.745Z,2.33
2024-02-29T04:22:09.893Z,2.12
2024-02-29T04:24:36.320Z,2.24
2024-02-29T04:27:02.768Z,2.24
2024-02-29T04:29:29.075Z,2.26
2024-02-29T04:31:55.443Z,2.25
2024-02-29T04:34:21.899Z,2.24
2024-02-29T04:36:48.768Z,2.19
2024-02-29T04:39:15.142Z,2.21
2024-02-29T04:41:41.749Z,2.25
2024-02-29T04:44:08.827Z,2.24
2024-02-29T04:46:35.294Z,2.22
2024-02-29T04:49:01.674Z,2.18
2024-02-29T04:51:28.002Z,2.14
2024-02-29T04:53:54.626Z,2.14
2024-02-29T04:56:21.182Z,2.16
2024-02-29T04:58:47.607Z,2.11
2024-02-29T05:01:14.318Z,2.10
2024-02-29T05:03:41.126Z,2.04
2024-02-29T05:06:13.091Z,2.10
2024-02-29T05:08:39.443Z,2.05
2024-02-29T05:11:09.041Z,2.07
2024-02-29T05:13:35.465Z,2.07
2024-02-29T05:16:05.903Z,2.04
2024-02-29T05:18:32.458Z,2.08
2024-02-29T05:20:58.813Z,2.16
2024-02-29T05:23:25.124Z,2.07
2024-02-29T05:25:52.189Z,2.09
2024-02-29T05:28:18.689Z,2.14
2024-02-29T05:30:45.187Z,2.19
2024-02-29T05:33:11.635Z,2.11
2024-02-29T05:35:38.162Z,2.07
2024-02-29T05:38:05.049Z,2.13
2024-02-29T05:40:31.474Z,2.07
2024-02-29T05:42:57.864Z,2.10
2024-02-29T05:45:24.542Z,2.14
2024-02-29T05:47:51.647Z,2.09
2024-02-29T05:50:18.096Z,2.14
2024-02-29T05:52:44.675Z,2.15
2024-02-29T05:55:12.063Z,2.10
2024-02-29T05:57:38.590Z,2.09
2024-02-29T06:00:06.258Z,2.21
2024-02-29T06:02:32.677Z,2.15
2024-02-29T06:04:59.945Z,2.15
2024-02-29T06:07:26.401Z,2.03
2024-02-29T06:09:52.897Z,2.12
2024-02-29T06:12:19.249Z,2.10
2024-02-29T06:14:47.591Z,2.17
2024-02-29T06:17:14.876Z,2.08
2024-02-29T06:19:41.459Z,2.07
2024-02-29T06:22:08.522Z,2.10
2024-02-29T06:24:36.123Z,2.16
2024-02-29T06:27:02.565Z,2.22
2024-02-29T06:29:28.928Z,2.16
2024-02-29T06:31:55.471Z,2.24
2024-02-29T06:34:21.911Z,2.27
2024-02-29T06:36:48.330Z,2.27
2024-02-29T06:39:15.069Z,2.34
2024-02-29T06:41:43.920Z,2.26
2024-02-29T06:44:10.770Z,2.25
2024-02-29T06:46:37.280Z,2.36
2024-02-29T06:49:04.122Z,2.46
2024-02-29T06:51:31.008Z,2.51
2024-02-29T06:53:57.410Z,2.47
2024-02-29T06:56:24.134Z,2.59
2024-02-29T06:58:50.541Z,2.61
2024-02-29T07:01:21.220Z,2.73
2024-02-29T07:03:48.907Z,2.83
2024-02-29T07:06:15.738Z,2.86
2024-02-29T07:08:42.128Z,2.95
2024-02-29T07:11:12.684Z,3.13
2024-02-29T07:13:39.596Z,3.15
2024-02-29T07:16:05.924Z,3.26
2024-02-29T07:18:32.458Z,3.41
2024-02-29T07:20:58.803Z,3.37
2024-02-29T07:23:25.709Z,3.32
2024-02-29T07:25:52.044Z,3.48
2024-02-29T07:28:18.671Z,3.51
2024-02-29T07:30:45.199Z,3.58
2024-02-29T07:33:12.059Z,3.68
2024-02-29T07:35:39.173Z,3.72
2024-02-29T07:38:05.871Z,3.76
2024-02-29T07:40:32.467Z,3.86
2024-02-29T07:42:58.876Z,3.87
2024-02-29T07:45:25.525Z,3.89
2024-02-29T07:47:51.948Z,3.90
2024-02-29T07:50:19.128Z,4.00
2024-02-29T07:52:45.689Z,4.04
2024-02-29T07:55:15.607Z,4.09
2024-02-29T07:57:42.357Z,4.13
2024-02-29T08:00:11.239Z,4.21
2024-02-29T08:02:43.047Z,4.37
2024-02-29T08:05:09.935Z,4.46
2024-02-29T08:07:36.565Z,4.53
2024-02-29T08:10:03.303Z,4.56
2024-02-29T08:12:30.558Z,4.73
2024-02-29T08:15:00.627Z,4.85
2024-02-29T08:17:28.596Z,4.98
2024-02-29T08:19:55.143Z,5.03
2024-02-29T08:22:21.560Z,5.11
2024-02-29T08:24:48.279Z,5.25
2024-02-29T08:27:14.715Z,5.34
2024-02-29T08:29:41.149Z,5.27
2024-02-29T08:32:08.430Z,5.38
2024-02-29T08:34:35.200Z,5.60
2024-02-29T08:37:03.085Z,5.55
2024-02-29T08:39:30.632Z,5.48
2024-02-29T08:41:56.974Z,5.68
2024-02-29T08:44:23.314Z,5.78
2024-02-29T08:46:49.813Z,5.84
2024-02-29T08:49:16.186Z,5.95
2024-02-29T08:51:42.686Z,6.06
2024-02-29T08:54:10.704Z,6.06
2024-02-29T08:56:37.494Z,6.05
2024-02-29T08:59:03.821Z,6.20
2024-02-29T09:01:30.248Z,6.39
2024-02-29T09:03:56.625Z,6.37
2024-02-29T09:06:23.078Z,6.42
2024-02-29T09:08:49.393Z,6.45
2024-02-29T09:11:15.926Z,6.53
2024-02-29T09:13:42.282Z,6.56
2024-02-29T09:16:09.240Z,6.66
2024-02-29T09:18:35.707Z,6.65
2024-02-29T09:21:02.436Z,6.72
2024-02-29T09:23:30.024Z,6.79
2024-02-29T09:25:56.627Z,6.86
2024-02-29T09:28:23.048Z,6.95
2024-02-29T09:30:49.962Z,7.00
2024-02-29T09:33:16.526Z,7.08
2024-02-29T09:35:42.974Z,7.19
2024-02-29T09:38:09.314Z,7.23
2024-02-29T09:40:45.699Z,7.30
2024-02-29T09:43:16.082Z,7.45
2024-02-29T09:45:43.857Z,7.51
2024-02-29T09:48:12.086Z,7.72
2024-02-29T09:50:38.576Z,7.75
2024-02-29T09:53:06.222Z,7.79
2024-02-29T09:55:33.208Z,7.95
2024-02-29T09:58:00.952Z,7.93
2024-02-29T10:00:27.512Z,8.07
2024-02-29T10:02:55.967Z,8.19
2024-02-29T10:05:22.900Z,8.34
2024-02-29T10:07:49.829Z,8.42
2024-02-29T10:10:17.772Z,8.44
2024-02-29T10:12:44.997Z,8.44
2024-02-29T10:15:11.763Z,8.51
2024-02-29T10:17:39.239Z,8.49
2024-02-29T10:20:13.635Z,8.62
2024-02-29T10:22:44.056Z,8.57
2024-02-29T10:25:13.281Z,8.52
2024-02-29T10:27:40.533Z,8.71
2024-02-29T10:30:19.695Z,8.89
2024-02-29T10:32:47.564Z,9.02
2024-02-29T10:35:24.768Z,9.11
2024-02-29T10:37:53.922Z,9.20
2024-02-29T10:40:21.089Z,9.12
2024-02-29T10:42:57.914Z,9.19
2024-02-29T10:45:27.604Z,9.35
2024-02-29T10:48:41.884Z,9.57
2024-02-29T10:51:29.032Z,9.58
2024-02-29T10:54:15.895Z,9.58
2024-02-29T10:56:45.965Z,9.59
2024-02-29T10:59:16.539Z,9.57
2024-02-29T11:01:43.652Z,9.63
2024-02-29T11:04:10.448Z,9.62
2024-02-29T11:06:47.121Z,9.67
2024-02-29T11:09:16.329Z,9.99
2024-02-29T11:11:44.885Z,9.93
2024-02-29T11:14:13.478Z,9.91
2024-02-29T11:16:42.764Z,9.79
2024-02-29T11:19:17.193Z,9.86
2024-02-29T11:21:43.710Z,10.09
2024-02-29T11:24:16.622Z,10.11
2024-02-29T11:26:45.036Z,10.15
2024-02-29T11:29:15.290Z,10.26
2024-02-29T11:31:44.470Z,10.40
2024-02-29T11:34:12.113Z,10.44
2024-02-29T11:36:39.116Z,10.40
2024-02-29T11:39:11.514Z,10.39
2024-02-29T11:41:39.011Z,10.38
2024-02-29T11:44:05.575Z,10.55
2024-02-29T11:46:32.066Z,10.58
2024-02-29T11:48:59.211Z,10.66
2024-02-29T11:51:26.150Z,10.65
2024-02-29T11:53:53.166Z,10.69
2024-02-29T11:56:19.895Z,10.64
2024-02-29T11:58:46.817Z,10.78
2024-02-29T12:01:14.233Z,10.69
2024-02-29T12:03:41.043Z,10.76
2024-02-29T12:06:07.921Z,11.01
2024-02-29T12:08:34.408Z,11.05
2024-02-29T12:11:01.035Z,10.91
2024-02-29T12:13:29.765Z,11.08
2024-02-29T12:15:56.958Z,11.17
2024-02-29T12:18:23.718Z,11.15
2024-02-29T12:20:50.749Z,11.12
2024-02-29T12:23:19.742Z,11.29
2024-02-29T12:25:47.172Z,11.26
2024-02-29T12:28:13.646Z,11.30
2024-02-29T12:30:40.711Z,11.12
2024-02-29T12:33:07.759Z,11.23
2024-02-29T12:35:34.304Z,11.41
2024-02-29T12:38:04.608Z,11.55
2024-02-29T12:40:34.256Z,11.47
2024-02-29T12:43:00.985Z,11.29
2024-02-29T12:45:28.342Z,11.32
2024-02-29T12:47:55.895Z,11.34
2024-02-29T12:50:22.750Z,11.42
2024-02-29T12:52:55.348Z,11.39
2024-02-29T12:55:23.490Z,11.27
2024-02-29T12:57:50.366Z,11.32
2024-02-29T13:00:22.726Z,11.55
2024-02-29T13:02:51.054Z,11.52
2024-02-29T13:05:18.723Z,11.56
2024-02-29T13:07:45.741Z,11.50
2024-02-29T13:10:12.440Z,11.59
2024-02-29T13:12:40.961Z,11.56
2024-02-29T13:15:07.781Z,11.40
2024-02-29T13:17:37.368Z,11.40
2024-02-29T13:20:04.068Z,11.48
2024-02-29T13:22:30.686Z,11.42
2024-02-29T13:24:57.321Z,11.46
2024-02-29T13:27:23.691Z,11.48
2024-02-29T13:29:50.289Z,11.53
2024-02-29T13:32:16.635Z,11.47
2024-02-29T13:34:43.242Z,11.62
2024-02-29T13:37:10.814Z,11.63
2024-02-29T13:39:38.194Z,11.41
2024-02-29T13:42:06.486Z,11.56
2024-02-29T13:44:33.745Z,11.54
2024-02-29T13:47:00.638Z,11.47
2024-02-29T13:49:27.064Z,11.52
2024-02-29T13:51:54.478Z,11.63
2024-02-29T13:54:21.267Z,11.66
2024-02-29T13:56:47.747Z,11.63
2024-02-29T13:59:14.651Z,11.64
2024-02-29T14:01:41.094Z,11.67
2024-02-29T14:04:08.002Z,11.68
2024-02-29T14:06:34.519Z,11.55
2024-02-29T14:09:00.940Z,11.62
2024-02-29T14:11:27.306Z,11.76
2024-02-29T14:13:53.982Z,11.84
2024-02-29T14:16:20.591Z,11.85
2024-02-29T14:18:47.638Z,11.65
2024-02-29T14:21:16.537Z,11.59
2024-02-29T14:23:43.399Z,11.61
2024-02-29T14:26:10.162Z,11.47
2024-02-29T14:28:36.633Z,11.40
2024-02-29T14:31:06.410Z,11.31
2024-02-29T14:33:33.737Z,11.38
2024-02-29T14:36:00.301Z,11.43
2024-02-29T14:38:27.578Z,11.19
2024-02-29T14:40:53.903Z,11.31
2024-02-29T14:43:20.749Z,11.31
2024-02-29T14:45:47.500Z,11.29
2024-02-29T14:48:13.906Z,11.25
2024-02-29T14:50:40.792Z,11.29
2024-02-29T14:53:07.479Z,11.23
2024-02-29T14:55:34.003Z,11.35
2024-02-29T14:58:00.509Z,11.38
2024-02-29T15:00:28.955Z,11.13
2024-02-29T15:02:55.311Z,11.11
2024-02-29T15:05:23.981Z,10.99
2024-02-29T15:07:51.727Z,10.93
2024-02-29T15:10:18.241Z,10.84
2024-02-29T15:12:44.831Z,10.80
2024-02-29T15:15:11.605Z,10.90
2024-02-29T15:17:38.404Z,10.95
2024-02-29T15:20:05.319Z,10.88
2024-02-29T15:22:32.045Z,10.67
2024-02-29T15:24:58.592Z,10.72
2024-02-29T15:27:25.223Z,10.64
2024-02-29T15:29:51.754Z,10.56
2024-02-29T15:32:18.312Z,10.67
2024-02-29T15:34:47.649Z,10.58
2024-02-29T15:37:14.570Z,10.60
2024-02-29T15:39:41.083Z,10.60
2024-02-29T15:42:07.466Z,10.60
2024-02-29T15:44:34.659Z,10.53
2024-02-29T15:47:01.054Z,10.48
2024-02-29T15:49:27.827Z,10.34
2024-02-29T15:51:54.304Z,10.35
2024-02-29T15:54:22.224Z,10.41
2024-02-29T15:56:49.059Z,10.25
2024-02-29T15:59:16.680Z,10.24
2024-02-29T16:01:43.217Z,10.16
2024-02-29T16:04:09.700Z,10.11
2024-02-29T16:06:36.284Z,10.08
2024-02-29T16:09:02.848Z,10.09
2024-02-29T16:11:29.893Z,10.06
2024-02-29T16:13:56.511Z,10.07
2024-02-29T16:16:23.367Z,10.06
2024-02-29T16:18:50.424Z,9.93
2024-02-29T16:21:16.833Z,9.96
2024-02-29T16:23:43.257Z,9.88
2024-02-29T16:26:09.689Z,9.89
2024-02-29T16:28:36.215Z,9.84
2024-02-29T16:31:03.781Z,9.79
2024-02-29T16:33:30.222Z,9.77
2024-02-29T16:35:56.878Z,9.80
2024-02-29T16:38:23.521Z,9.68
2024-02-29T16:40:50.349Z,9.49
2024-02-29T16:43:21.666Z,9.45
2024-02-29T16:45:49.674Z,9.51
2024-02-29T16:48:16.621Z,9.21
2024-02-29T16:50:45.118Z,9.25
2024-02-29T16:53:12.414Z,9.26
2024-02-29T16:55:38.759Z,9.11
2024-02-29T16:58:05.354Z,9.05
2024-02-29T17:00:31.730Z,9.00
2024-02-29T17:03:00.201Z,8.96
2024-02-29T17:05:26.873Z,8.74
2024-02-29T17:07:53.653Z,8.69
2024-02-29T17:10:20.230Z,8.66
2024-02-29T17:12:46.843Z,8.54
2024-02-29T17:15:13.478Z,8.60
2024-02-29T17:17:40.198Z,8.61
2024-02-29T17:20:08.102Z,8.55
2024-02-29T17:22:34.832Z,8.45
2024-02-29T17:25:01.510Z,8.42
2024-02-29T17:27:28.196Z,8.48
2024-02-29T17:29:54.931Z,8.41
2024-02-29T17:32:21.925Z,8.30
2024-02-29T17:34:50.657Z,8.30
2024-02-29T17:37:18.338Z,8.31
2024-02-29T17:39:45.923Z,8.28
2024-02-29T17:42:12.533Z,8.24
2024-02-29T17:44:39.813Z,8.16
2024-02-29T17:47:06.203Z,8.08
2024-02-29T17:49:32.858Z,8.06
2024-02-29T17:51:59.475Z,8.05
2024-02-29T17:54:25.843Z,8.06
2024-02-29T17:56:53.019Z,8.04
2024-02-29T17:59:20.827Z,8.02
2024-02-29T18:01:47.354Z,8.00
2024-02-29T18:04:13.838Z,7.88
2024-02-29T18:06:40.276Z,7.94
2024-02-29T18:09:07.328Z,7.93
2024-02-29T18:11:34.237Z,7.86
2024-02-29T18:14:00.680Z,7.75
2024-02-29T18:16:28.097Z,7.65
2024-02-29T18:18:55.790Z,7.66
2024-02-29T18:21:22.222Z,7.73
2024-02-29T18:23:48.733Z,7.71
2024-02-29T18:26:16.503Z,7.73
2024-02-29T18:28:42.946Z,7.72
2024-02-29T18:31:09.627Z,7.75
2024-02-29T18:33:37.081Z,7.73
2024-02-29T18:36:03.878Z,7.57
2024-02-29T18:38:30.517Z,7.63
2024-02-29T18:40:57.160Z,7.63
2024-02-29T18:43:23.893Z,7.63
2024-02-29T18:46:02.770Z,7.58
2024-02-29T18:48:32.404Z,7.56
2024-02-29T18:50:58.869Z,7.58
2024-02-29T18:53:25.219Z,7.57
2024-02-29T18:55:51.783Z,7.60
2024-02-29T18:58:18.163Z,7.59
2024-02-29T19:00:44.709Z,7.41
2024-02-29T19:03:11.117Z,7.36
2024-02-29T19:05:37.471Z,7.38
2024-02-29T19:08:04.257Z,7.34
2024-02-29T19:10:31.584Z,7.27
2024-02-29T19:12:58.217Z,7.28
2024-02-29T19:15:24.735Z,7.22
2024-02-29T19:17:51.147Z,7.16
2024-02-29T19:20:17.516Z,7.19
2024-02-29T19:22:44.020Z,7.14
2024-02-29T19:25:10.548Z,7.15
2024-02-29T19:27:37.122Z,7.12
2024-02-29T19:30:05.747Z,7.09
2024-02-29T19:32:32.460Z,7.11
2024-02-29T19:35:00.381Z,7.06
2024-02-29T19:37:28.107Z,6.99
2024-02-29T19:39:55.220Z,6.98
2024-02-29T19:42:21.846Z,6.97
2024-02-29T19:44:48.343Z,6.94
2024-02-29T19:47:14.714Z,6.87
2024-02-29T19:49:41.080Z,6.76
2024-02-29T19:52:07.492Z,6.79
2024-02-29T19:54:35.118Z,6.74
2024-02-29T19:57:01.488Z,6.73
2024-02-29T19:59:27.811Z,6.64
2024-02-29T20:01:54.379Z,6.68
2024-02-29T20:04:24.409Z,6.62
2024-02-29T20:06:53.975Z,6.59
2024-02-29T20:09:20.446Z,6.56
2024-02-29T20:11:46.902Z,6.54
2024-02-29T20:14:13.422Z,6.59
2024-02-29T20:16:41.984Z,6.48
2024-02-29T20:19:09.301Z,6.51
2024-02-29T20:21:35.970Z,6.41
2024-02-29T20:24:02.476Z,6.39
2024-02-29T20:26:28.910Z,6.46
2024-02-29T20:28:55.435Z,6.50
2024-02-29T20:31:22.183Z,6.52
2024-02-29T20:33:48.850Z,6.50
2024-02-29T20:36:15.186Z,6.55
2024-02-29T20:38:41.853Z,6.53
2024-02-29T20:41:09.387Z,6.55
2024-02-29T20:43:35.756Z,6.55
2024-02-29T20:46:02.256Z,6.53
2024-02-29T20:48:28.657Z,6.46
2024-02-29T20:50:55.104Z,6.46
2024-02-29T20:53:21.836Z,6.44
2024-02-29T20:55:48.334Z,6.41
2024-02-29T20:58:15.908Z,6.43
2024-02-29T21:00:42.454Z,6.33
2024-02-29T21:03:09.295Z,6.36
2024-02-29T21:05:35.920Z,6.30
2024-02-29T21:08:02.267Z,6.24
2024-02-29T21:10:28.934Z,6.28
2024-02-29T21:12:57.341Z,6.19
2024-02-29T21:15:24.044Z,6.20
2024-02-29T21:17:51.638Z,6.14
2024-02-29T21:20:19.117Z,6.11
2024-02-29T21:22:45.577Z,6.07
2024-02-29T21:25:12.281Z,5.99
2024-02-29T21:27:39.559Z,6.05
2024-02-29T21:30:08.196Z,6.11
2024-02-29T21:32:34.890Z,6.06
2024-02-29T21:35:01.909Z,5.97
2024-02-29T21:37:28.627Z,5.90
2024-02-29T21:39:56.486Z,5.94
2024-02-29T21:42:23.230Z,5.91
2024-02-29T21:44:49.721Z,5.79
2024-02-29T21:47:16.237Z,5.79
2024-02-29T21:49:42.886Z,5.82
2024-02-29T21:52:09.288Z,5.82
2024-02-29T21:54:39.537Z,5.80
2024-02-29T21:57:05.901Z,5.75
2024-02-29T21:59:32.522Z,5.68
2024-02-29T22:01:59.389Z,5.63
2024-02-29T22:04:25.983Z,5.65
2024-02-29T22:06:52.725Z,5.64
2024-02-29T22:09:19.149Z,5.65
2024-02-29T22:11:46.858Z,5.65
2024-02-29T22:14:13.432Z,5.60
2024-02-29T22:16:43.690Z,5.57
2024-02-29T22:19:11.293Z,5.57
2024-02-29T22:21:37.789Z,5.53
2024-02-29T22:24:05.509Z,5.52
2024-02-29T22:26:32.134Z,5.47
2024-02-29T22:28:59.411Z,5.50
2024-02-29T22:31:26.205Z,5.48
2024-02-29T22:33:52.619Z,5.48
2024-02-29T22:36:19.071Z,5.49
2024-02-29T22:38:45.686Z,5.42
2024-02-29T22:41:12.455Z,5.40
2024-02-29T22:43:38.767Z,5.36
2024-02-29T22:46:05.340Z,5.29
2024-02-29T22:48:31.995Z,5.31
2024-02-29T22:50:59.544Z,5.33
2024-02-29T22:53:26.375Z,5.25
2024-02-29T22:55:53.000Z,5.27
2024-02-29T22:58:22.661Z,5.28
2024-02-29T23:03:18.485Z,5.18
2024-02-29T23:05:45.201Z,5.20
2024-02-29T23:08:11.664Z,5.12
2024-02-29T23:10:40.938Z,5.15
2024-02-29T23:13:07.783Z,5.10
2024-02-29T23:15:34.508Z,5.05
2024-02-29T23:18:01.733Z,5.01
2024-02-29T23:20:28.477Z,4.95
2024-02-29T23:22:55.815Z,4.91
2024-02-29T23:25:25.230Z,4.90
2024-02-29T23:27:52.503Z,4.81
2024-02-29T23:30:19.084Z,4.70
2024-02-29T23:32:45.563Z,4.72
2024-02-29T23:35:12.165Z,4.73
2024-02-29T23:37:38.561Z,4.71
2024-02-29T23:40:06.293Z,4.62
2024-02-29T23:42:32.913Z,4.49
2024-02-29T23:44:59.394Z,4.44
2024-02-29T23:47:25.721Z,4.36
2024-02-29T23:49:52.086Z,4.41
2024-02-29T23:52:18.671Z,4.38
2024-02-29T23:54:46.990Z,4.36
2024-02-29T23:57:13.711Z,4.33
2024-02-29T23:59:40.290Z,4.28
